sensor_id;sensor_type;location;lat;lon;timestamp;P1;durP1;ratioP1;P2;durP2;ratioP2
13032;SDS011;6583;42.632;23.298;2023-11-18T00:02:25;0.60;;;0.60;;
13032;SDS011;6583;42.632;23.298;2023-11-18T00:04:52;0.50;;;0.50;;
13032;SDS011;6583;42.632;23.298;2023-11-18T00:07:20;0.50;;;0.50;;
13032;SDS011;6583;42.632;23.298;2023-11-18T00:09:47;0.70;;;0.70;;
13032;SDS011;6583;42.632;23.298;2023-11-18T00:12:14;0.60;;;0.60;;
13032;SDS011;6583;42.632;23.298;2023-11-18T00:14:41;0.60;;;0.60;;
13032;SDS011;6583;42.632;23.298;2023-11-18T00:17:08;1.17;;;0.60;;
13032;SDS011;6583;42.632;23.298;2023-11-18T00:19:35;0.70;;;0.70;;
13032;SDS011;6583;42.632;23.298;2023-11-18T00:22:02;0.50;;;0.50;;
13032;SDS011;6583;42.632;23.298;2023-11-18T00:24:30;0.50;;;0.50;;
13032;SDS011;6583;42.632;23.298;2023-11-18T00:26:59;0.57;;;0.57;;
13032;SDS011;6583;42.632;23.298;2023-11-18T00:29:30;0.70;;;0.70;;
13032;SDS011;6583;42.632;23.298;2023-11-18T00:31:57;0.60;;;0.60;;
13032;SDS011;6583;42.632;23.298;2023-11-18T00:34:24;0.60;;;0.60;;
13032;SDS011;6583;42.632;23.298;2023-11-18T00:36:51;0.70;;;0.70;;
13032;SDS011;6583;42.632;23.298;2023-11-18T00:39:18;0.90;;;0.90;;
13032;SDS011;6583;42.632;23.298;2023-11-18T00:41:47;1.17;;;1.10;;
13032;SDS011;6583;42.632;23.298;2023-11-18T00:44:14;0.70;;;0.67;;
13032;SDS011;6583;42.632;23.298;2023-11-18T00:46:41;0.80;;;0.77;;
13032;SDS011;6583;42.632;23.298;2023-11-18T00:49:07;0.70;;;0.70;;
13032;SDS011;6583;42.632;23.298;2023-11-18T00:51:36;0.80;;;0.80;;
13032;SDS011;6583;42.632;23.298;2023-11-18T00:54:02;0.80;;;0.80;;
13032;SDS011;6583;42.632;23.298;2023-11-18T00:56:30;1.07;;;1.07;;
13032;SDS011;6583;42.632;23.298;2023-11-18T00:58:59;1.17;;;0.97;;
13032;SDS011;6583;42.632;23.298;2023-11-18T01:01:29;0.87;;;0.87;;
13032;SDS011;6583;42.632;23.298;2023-11-18T01:03:57;1.10;;;1.10;;
13032;SDS011;6583;42.632;23.298;2023-11-18T01:06:24;0.90;;;0.90;;
13032;SDS011;6583;42.632;23.298;2023-11-18T01:08:51;1.03;;;1.03;;
13032;SDS011;6583;42.632;23.298;2023-11-18T01:11:18;1.00;;;1.00;;
13032;SDS011;6583;42.632;23.298;2023-11-18T01:13:47;1.10;;;1.00;;
13032;SDS011;6583;42.632;23.298;2023-11-18T01:16:15;1.40;;;1.00;;
13032;SDS011;6583;42.632;23.298;2023-11-18T01:18:42;0.83;;;0.83;;
13032;SDS011;6583;42.632;23.298;2023-11-18T01:21:09;1.10;;;1.00;;
13032;SDS011;6583;42.632;23.298;2023-11-18T01:23:36;1.00;;;1.00;;
13032;SDS011;6583;42.632;23.298;2023-11-18T01:26:04;1.00;;;0.97;;
13032;SDS011;6583;42.632;23.298;2023-11-18T01:28:31;1.10;;;1.00;;
13032;SDS011;6583;42.632;23.298;2023-11-18T01:31:01;1.10;;;1.10;;
13032;SDS011;6583;42.632;23.298;2023-11-18T01:33:30;1.53;;;1.40;;
13032;SDS011;6583;42.632;23.298;2023-11-18T01:35:58;1.40;;;1.30;;
13032;SDS011;6583;42.632;23.298;2023-11-18T01:38:24;1.60;;;1.50;;
13032;SDS011;6583;42.632;23.298;2023-11-18T01:40:51;2.13;;;1.60;;
13032;SDS011;6583;42.632;23.298;2023-11-18T01:43:19;1.70;;;1.60;;
13032;SDS011;6583;42.632;23.298;2023-11-18T01:45:47;1.40;;;1.30;;
13032;SDS011;6583;42.632;23.298;2023-11-18T01:48:14;1.40;;;1.30;;
13032;SDS011;6583;42.632;23.298;2023-11-18T01:50:42;1.60;;;1.50;;
13032;SDS011;6583;42.632;23.298;2023-11-18T01:53:10;1.30;;;1.07;;
13032;SDS011;6583;42.632;23.298;2023-11-18T01:55:39;1.50;;;1.40;;
13032;SDS011;6583;42.632;23.298;2023-11-18T01:58:05;1.40;;;1.30;;
13032;SDS011;6583;42.632;23.298;2023-11-18T02:00:36;1.40;;;1.30;;
13032;SDS011;6583;42.632;23.298;2023-11-18T02:03:04;1.53;;;1.43;;
13032;SDS011;6583;42.632;23.298;2023-11-18T02:05:31;1.70;;;1.60;;
13032;SDS011;6583;42.632;23.298;2023-11-18T02:08:01;1.60;;;1.50;;
13032;SDS011;6583;42.632;23.298;2023-11-18T02:10:32;1.60;;;1.50;;
13032;SDS011;6583;42.632;23.298;2023-11-18T02:13:03;1.97;;;1.87;;
13032;SDS011;6583;42.632;23.298;2023-11-18T02:15:37;1.70;;;1.60;;
13032;SDS011;6583;42.632;23.298;2023-11-18T02:18:06;1.90;;;1.30;;
13032;SDS011;6583;42.632;23.298;2023-11-18T02:20:35;2.10;;;1.90;;
13032;SDS011;6583;42.632;23.298;2023-11-18T02:23:03;2.00;;;1.90;;
13032;SDS011;6583;42.632;23.298;2023-11-18T02:25:32;2.10;;;1.90;;
13032;SDS011;6583;42.632;23.298;2023-11-18T02:28:02;2.90;;;2.30;;
13032;SDS011;6583;42.632;23.298;2023-11-18T02:30:28;2.37;;;2.17;;
13032;SDS011;6583;42.632;23.298;2023-11-18T02:32:58;2.37;;;2.17;;
13032;SDS011;6583;42.632;23.298;2023-11-18T02:35:32;2.10;;;1.97;;
13032;SDS011;6583;42.632;23.298;2023-11-18T02:38:02;1.90;;;1.80;;
13032;SDS011;6583;42.632;23.298;2023-11-18T02:40:32;2.30;;;2.10;;
13032;SDS011;6583;42.632;23.298;2023-11-18T02:43:02;1.83;;;1.73;;
13032;SDS011;6583;42.632;23.298;2023-11-18T02:45:31;2.27;;;2.07;;
13032;SDS011;6583;42.632;23.298;2023-11-18T02:47:58;2.13;;;1.70;;
13032;SDS011;6583;42.632;23.298;2023-11-18T02:50:25;2.20;;;2.10;;
13032;SDS011;6583;42.632;23.298;2023-11-18T02:52:53;1.80;;;1.70;;
13032;SDS011;6583;42.632;23.298;2023-11-18T02:55:19;1.80;;;1.70;;
13032;SDS011;6583;42.632;23.298;2023-11-18T02:57:48;2.30;;;2.10;;
13032;SDS011;6583;42.632;23.298;2023-11-18T03:00:18;2.50;;;2.30;;
13032;SDS011;6583;42.632;23.298;2023-11-18T03:02:47;1.70;;;1.60;;
13032;SDS011;6583;42.632;23.298;2023-11-18T03:05:16;2.20;;;2.00;;
13032;SDS011;6583;42.632;23.298;2023-11-18T03:07:44;2.27;;;2.07;;
13032;SDS011;6583;42.632;23.298;2023-11-18T03:10:14;2.00;;;1.90;;
13032;SDS011;6583;42.632;23.298;2023-11-18T03:12:46;2.50;;;2.30;;
13032;SDS011;6583;42.632;23.298;2023-11-18T03:15:13;2.67;;;2.40;;
13032;SDS011;6583;42.632;23.298;2023-11-18T03:17:43;3.40;;;2.90;;
13032;SDS011;6583;42.632;23.298;2023-11-18T03:20:10;3.20;;;2.70;;
13032;SDS011;6583;42.632;23.298;2023-11-18T03:22:39;2.90;;;2.70;;
13032;SDS011;6583;42.632;23.298;2023-11-18T03:25:07;3.00;;;2.70;;
13032;SDS011;6583;42.632;23.298;2023-11-18T03:27:34;2.90;;;2.70;;
13032;SDS011;6583;42.632;23.298;2023-11-18T03:30:01;2.37;;;2.17;;
13032;SDS011;6583;42.632;23.298;2023-11-18T03:32:28;2.80;;;2.60;;
13032;SDS011;6583;42.632;23.298;2023-11-18T03:34:57;3.30;;;3.00;;
13032;SDS011;6583;42.632;23.298;2023-11-18T03:37:25;3.03;;;2.60;;
13032;SDS011;6583;42.632;23.298;2023-11-18T03:39:52;2.70;;;2.50;;
13032;SDS011;6583;42.632;23.298;2023-11-18T03:42:19;2.27;;;2.07;;
13032;SDS011;6583;42.632;23.298;2023-11-18T03:44:47;2.50;;;2.30;;
13032;SDS011;6583;42.632;23.298;2023-11-18T03:47:13;2.30;;;2.13;;
13032;SDS011;6583;42.632;23.298;2023-11-18T03:49:40;2.47;;;2.27;;
13032;SDS011;6583;42.632;23.298;2023-11-18T03:52:07;3.90;;;2.83;;
13032;SDS011;6583;42.632;23.298;2023-11-18T03:54:34;2.90;;;2.60;;
13032;SDS011;6583;42.632;23.298;2023-11-18T03:57:01;3.10;;;2.80;;
13032;SDS011;6583;42.632;23.298;2023-11-18T03:59:28;3.40;;;3.10;;
13032;SDS011;6583;42.632;23.298;2023-11-18T04:01:55;2.77;;;2.57;;
13032;SDS011;6583;42.632;23.298;2023-11-18T04:04:21;3.40;;;3.10;;
13032;SDS011;6583;42.632;23.298;2023-11-18T04:06:48;3.40;;;2.97;;
13032;SDS011;6583;42.632;23.298;2023-11-18T04:09:16;3.37;;;3.07;;
13032;SDS011;6583;42.632;23.298;2023-11-18T04:11:43;3.10;;;2.60;;
13032;SDS011;6583;42.632;23.298;2023-11-18T04:14:11;3.53;;;3.23;;
13032;SDS011;6583;42.632;23.298;2023-11-18T04:16:37;3.50;;;3.17;;
13032;SDS011;6583;42.632;23.298;2023-11-18T04:19:04;4.13;;;3.60;;
13032;SDS011;6583;42.632;23.298;2023-11-18T04:21:31;3.53;;;3.23;;
13032;SDS011;6583;42.632;23.298;2023-11-18T04:23:58;3.73;;;3.43;;
13032;SDS011;6583;42.632;23.298;2023-11-18T04:26:26;3.67;;;3.37;;
13032;SDS011;6583;42.632;23.298;2023-11-18T04:28:53;3.60;;;3.20;;
13032;SDS011;6583;42.632;23.298;2023-11-18T04:31:20;3.77;;;3.47;;
13032;SDS011;6583;42.632;23.298;2023-11-18T04:33:47;3.70;;;3.40;;
13032;SDS011;6583;42.632;23.298;2023-11-18T04:36:14;4.10;;;3.70;;
13032;SDS011;6583;42.632;23.298;2023-11-18T04:38:41;3.80;;;3.40;;
13032;SDS011;6583;42.632;23.298;2023-11-18T04:41:08;3.30;;;2.97;;
13032;SDS011;6583;42.632;23.298;2023-11-18T04:43:37;3.03;;;2.83;;
13032;SDS011;6583;42.632;23.298;2023-11-18T04:46:05;2.23;;;2.03;;
13032;SDS011;6583;42.632;23.298;2023-11-18T04:48:32;3.27;;;2.97;;
13032;SDS011;6583;42.632;23.298;2023-11-18T04:50:59;2.70;;;2.37;;
13032;SDS011;6583;42.632;23.298;2023-11-18T04:53:26;3.10;;;2.90;;
13032;SDS011;6583;42.632;23.298;2023-11-18T04:55:53;3.33;;;3.03;;
13032;SDS011;6583;42.632;23.298;2023-11-18T04:58:20;3.30;;;2.67;;
13032;SDS011;6583;42.632;23.298;2023-11-18T05:00:48;2.87;;;2.67;;
13032;SDS011;6583;42.632;23.298;2023-11-18T05:03:16;2.60;;;2.17;;
13032;SDS011;6583;42.632;23.298;2023-11-18T05:05:42;2.40;;;2.20;;
13032;SDS011;6583;42.632;23.298;2023-11-18T05:08:18;2.60;;;2.40;;
13032;SDS011;6583;42.632;23.298;2023-11-18T05:10:46;2.47;;;2.27;;
13032;SDS011;6583;42.632;23.298;2023-11-18T05:13:13;2.60;;;2.07;;
13032;SDS011;6583;42.632;23.298;2023-11-18T05:15:41;2.23;;;2.03;;
13032;SDS011;6583;42.632;23.298;2023-11-18T05:18:11;2.10;;;1.97;;
13032;SDS011;6583;42.632;23.298;2023-11-18T05:20:39;2.20;;;2.00;;
13032;SDS011;6583;42.632;23.298;2023-11-18T05:23:06;2.50;;;2.00;;
13032;SDS011;6583;42.632;23.298;2023-11-18T05:25:35;1.40;;;1.30;;
13032;SDS011;6583;42.632;23.298;2023-11-18T05:41:21;2.00;;;1.90;;
13032;SDS011;6583;42.632;23.298;2023-11-18T05:43:53;4.43;;;1.90;;
13032;SDS011;6583;42.632;23.298;2023-11-18T05:46:22;3.77;;;1.80;;
13032;SDS011;6583;42.632;23.298;2023-11-18T05:48:51;1.70;;;1.60;;
13032;SDS011;6583;42.632;23.298;2023-11-18T05:51:21;1.57;;;1.47;;
13032;SDS011;6583;42.632;23.298;2023-11-18T05:53:48;1.37;;;1.27;;
13032;SDS011;6583;42.632;23.298;2023-11-18T05:56:17;1.40;;;1.30;;
13032;SDS011;6583;42.632;23.298;2023-11-18T05:58:45;1.77;;;1.40;;
13032;SDS011;6583;42.632;23.298;2023-11-18T06:01:12;1.40;;;1.30;;
13032;SDS011;6583;42.632;23.298;2023-11-18T06:03:39;1.30;;;1.20;;
13032;SDS011;6583;42.632;23.298;2023-11-18T06:06:08;1.30;;;1.20;;
13032;SDS011;6583;42.632;23.298;2023-11-18T06:08:36;1.30;;;1.20;;
13032;SDS011;6583;42.632;23.298;2023-11-18T06:11:04;2.63;;;1.20;;
13032;SDS011;6583;42.632;23.298;2023-11-18T06:13:38;1.77;;;1.20;;
13032;SDS011;6583;42.632;23.298;2023-11-18T06:16:09;1.67;;;1.50;;
13032;SDS011;6583;42.632;23.298;2023-11-18T06:18:40;2.17;;;1.20;;
13032;SDS011;6583;42.632;23.298;2023-11-18T06:21:10;2.33;;;1.30;;
13032;SDS011;6583;42.632;23.298;2023-11-18T06:23:38;2.07;;;1.23;;
13032;SDS011;6583;42.632;23.298;2023-11-18T06:26:05;1.77;;;1.40;;
13032;SDS011;6583;42.632;23.298;2023-11-18T06:28:32;0.70;;;0.70;;
13032;SDS011;6583;42.632;23.298;2023-11-18T06:31:00;1.00;;;0.90;;
13032;SDS011;6583;42.632;23.298;2023-11-18T06:33:28;1.03;;;0.97;;
13032;SDS011;6583;42.632;23.298;2023-11-18T06:35:54;1.27;;;0.80;;
13032;SDS011;6583;42.632;23.298;2023-11-18T06:38:21;1.47;;;1.00;;
13032;SDS011;6583;42.632;23.298;2023-11-18T06:40:49;0.83;;;0.83;;
13032;SDS011;6583;42.632;23.298;2023-11-18T06:43:18;0.80;;;0.80;;
13032;SDS011;6583;42.632;23.298;2023-11-18T06:56:35;0.73;;;0.73;;
13032;SDS011;6583;42.632;23.298;2023-11-18T06:59:03;0.63;;;0.53;;
13032;SDS011;6583;42.632;23.298;2023-11-18T07:01:32;1.47;;;0.50;;
13032;SDS011;6583;42.632;23.298;2023-11-18T07:03:59;0.50;;;0.50;;
13032;SDS011;6583;42.632;23.298;2023-11-18T07:06:26;0.60;;;0.50;;
13032;SDS011;6583;42.632;23.298;2023-11-18T07:08:53;4.80;;;0.93;;
13032;SDS011;6583;42.632;23.298;2023-11-18T07:11:21;0.80;;;0.60;;
13032;SDS011;6583;42.632;23.298;2023-11-18T07:13:49;1.07;;;0.60;;
13032;SDS011;6583;42.632;23.298;2023-11-18T07:16:21;0.60;;;0.60;;
13032;SDS011;6583;42.632;23.298;2023-11-18T07:18:48;1.53;;;0.77;;
13032;SDS011;6583;42.632;23.298;2023-11-18T07:21:15;1.27;;;0.63;;
13032;SDS011;6583;42.632;23.298;2023-11-18T07:23:42;0.50;;;0.50;;
13032;SDS011;6583;42.632;23.298;2023-11-18T07:26:09;0.50;;;0.50;;
13032;SDS011;6583;42.632;23.298;2023-11-18T07:28:36;0.40;;;0.40;;
13032;SDS011;6583;42.632;23.298;2023-11-18T07:31:04;0.60;;;0.60;;
13032;SDS011;6583;42.632;23.298;2023-11-18T07:33:31;0.57;;;0.50;;
13032;SDS011;6583;42.632;23.298;2023-11-18T07:35:58;0.50;;;0.50;;
13032;SDS011;6583;42.632;23.298;2023-11-18T07:38:25;0.50;;;0.50;;
13032;SDS011;6583;42.632;23.298;2023-11-18T07:40:52;0.70;;;0.60;;
13032;SDS011;6583;42.632;23.298;2023-11-18T07:43:21;0.60;;;0.60;;
13032;SDS011;6583;42.632;23.298;2023-11-18T07:45:48;0.50;;;0.50;;
13032;SDS011;6583;42.632;23.298;2023-11-18T07:48:18;0.60;;;0.60;;
13032;SDS011;6583;42.632;23.298;2023-11-18T07:50:46;0.40;;;0.40;;
13032;SDS011;6583;42.632;23.298;2023-11-18T07:53:13;0.60;;;0.60;;
13032;SDS011;6583;42.632;23.298;2023-11-18T07:55:41;0.60;;;0.60;;
13032;SDS011;6583;42.632;23.298;2023-11-18T07:58:07;0.90;;;0.70;;
13032;SDS011;6583;42.632;23.298;2023-11-18T08:00:35;0.50;;;0.50;;
13032;SDS011;6583;42.632;23.298;2023-11-18T08:03:04;1.03;;;0.60;;
13032;SDS011;6583;42.632;23.298;2023-11-18T08:05:33;0.70;;;0.70;;
13032;SDS011;6583;42.632;23.298;2023-11-18T08:08:00;0.70;;;0.70;;
13032;SDS011;6583;42.632;23.298;2023-11-18T08:10:27;0.50;;;0.50;;
13032;SDS011;6583;42.632;23.298;2023-11-18T08:12:53;1.60;;;0.60;;
13032;SDS011;6583;42.632;23.298;2023-11-18T08:15:19;0.40;;;0.40;;
13032;SDS011;6583;42.632;23.298;2023-11-18T08:17:46;0.73;;;0.70;;
13032;SDS011;6583;42.632;23.298;2023-11-18T08:20:14;0.70;;;0.70;;
13032;SDS011;6583;42.632;23.298;2023-11-18T08:22:42;0.60;;;0.60;;
13032;SDS011;6583;42.632;23.298;2023-11-18T08:25:10;0.87;;;0.60;;
13032;SDS011;6583;42.632;23.298;2023-11-18T08:27:38;0.60;;;0.60;;
13032;SDS011;6583;42.632;23.298;2023-11-18T08:30:05;0.60;;;0.60;;
13032;SDS011;6583;42.632;23.298;2023-11-18T08:32:36;0.73;;;0.73;;
13032;SDS011;6583;42.632;23.298;2023-11-18T08:35:04;0.60;;;0.60;;
13032;SDS011;6583;42.632;23.298;2023-11-18T08:37:32;1.80;;;0.90;;
13032;SDS011;6583;42.632;23.298;2023-11-18T08:40:01;0.70;;;0.70;;
13032;SDS011;6583;42.632;23.298;2023-11-18T08:42:28;0.70;;;0.70;;
13032;SDS011;6583;42.632;23.298;2023-11-18T08:44:56;0.70;;;0.70;;
13032;SDS011;6583;42.632;23.298;2023-11-18T08:47:24;1.33;;;0.50;;
13032;SDS011;6583;42.632;23.298;2023-11-18T08:49:51;1.27;;;0.70;;
13032;SDS011;6583;42.632;23.298;2023-11-18T08:52:17;0.60;;;0.60;;
13032;SDS011;6583;42.632;23.298;2023-11-18T08:54:44;0.50;;;0.50;;
13032;SDS011;6583;42.632;23.298;2023-11-18T08:57:26;1.13;;;0.90;;
13032;SDS011;6583;42.632;23.298;2023-11-18T08:59:59;0.50;;;0.50;;
13032;SDS011;6583;42.632;23.298;2023-11-18T09:02:32;0.80;;;0.77;;
13032;SDS011;6583;42.632;23.298;2023-11-18T09:05:02;0.60;;;0.60;;
13032;SDS011;6583;42.632;23.298;2023-11-18T09:07:37;0.70;;;0.70;;
13032;SDS011;6583;42.632;23.298;2023-11-18T09:10:05;0.90;;;0.80;;
13032;SDS011;6583;42.632;23.298;2023-11-18T09:12:35;0.60;;;0.60;;
13032;SDS011;6583;42.632;23.298;2023-11-18T09:15:02;0.63;;;0.60;;
13032;SDS011;6583;42.632;23.298;2023-11-18T09:17:29;0.50;;;0.50;;
13032;SDS011;6583;42.632;23.298;2023-11-18T09:19:56;0.93;;;0.60;;
13032;SDS011;6583;42.632;23.298;2023-11-18T09:40:40;0.57;;;0.57;;
13032;SDS011;6583;42.632;23.298;2023-11-18T09:43:09;0.57;;;0.57;;
13032;SDS011;6583;42.632;23.298;2023-11-18T09:45:39;1.47;;;0.70;;
13032;SDS011;6583;42.632;23.298;2023-11-18T09:48:06;0.77;;;0.70;;
13032;SDS011;6583;42.632;23.298;2023-11-18T09:50:34;0.50;;;0.50;;
13032;SDS011;6583;42.632;23.298;2023-11-18T09:53:03;0.60;;;0.60;;
13032;SDS011;6583;42.632;23.298;2023-11-18T09:55:37;0.83;;;0.70;;
13032;SDS011;6583;42.632;23.298;2023-11-18T09:58:13;0.80;;;0.80;;
13032;SDS011;6583;42.632;23.298;2023-11-18T10:00:49;0.60;;;0.60;;
13032;SDS011;6583;42.632;23.298;2023-11-18T10:03:20;1.37;;;0.90;;
13032;SDS011;6583;42.632;23.298;2023-11-18T10:05:47;0.83;;;0.77;;
13032;SDS011;6583;42.632;23.298;2023-11-18T10:08:15;0.80;;;0.80;;
13032;SDS011;6583;42.632;23.298;2023-11-18T10:10:45;1.23;;;0.90;;
13032;SDS011;6583;42.632;23.298;2023-11-18T10:13:12;0.50;;;0.50;;
13032;SDS011;6583;42.632;23.298;2023-11-18T10:15:46;0.60;;;0.60;;
13032;SDS011;6583;42.632;23.298;2023-11-18T10:18:17;0.80;;;0.80;;
13032;SDS011;6583;42.632;23.298;2023-11-18T10:20:48;1.73;;;0.77;;
13032;SDS011;6583;42.632;23.298;2023-11-18T10:23:17;0.80;;;0.80;;
13032;SDS011;6583;42.632;23.298;2023-11-18T10:25:47;0.80;;;0.80;;
13032;SDS011;6583;42.632;23.298;2023-11-18T10:28:23;0.97;;;0.70;;
13032;SDS011;6583;42.632;23.298;2023-11-18T10:30:52;2.77;;;1.67;;
13032;SDS011;6583;42.632;23.298;2023-11-18T10:33:20;2.07;;;1.43;;
13032;SDS011;6583;42.632;23.298;2023-11-18T10:35:48;0.70;;;0.70;;
13032;SDS011;6583;42.632;23.298;2023-11-18T10:38:17;0.70;;;0.70;;
13032;SDS011;6583;42.632;23.298;2023-11-18T10:40:44;1.00;;;0.87;;
13032;SDS011;6583;42.632;23.298;2023-11-18T10:43:12;1.30;;;0.80;;
13032;SDS011;6583;42.632;23.298;2023-11-18T10:45:42;0.70;;;0.70;;
13032;SDS011;6583;42.632;23.298;2023-11-18T10:48:12;0.93;;;0.80;;
13032;SDS011;6583;42.632;23.298;2023-11-18T10:50:41;1.33;;;1.00;;
13032;SDS011;6583;42.632;23.298;2023-11-18T10:53:10;0.70;;;0.70;;
13032;SDS011;6583;42.632;23.298;2023-11-18T10:55:41;0.73;;;0.73;;
13032;SDS011;6583;42.632;23.298;2023-11-18T10:58:07;1.03;;;1.03;;
13032;SDS011;6583;42.632;23.298;2023-11-18T11:00:48;0.90;;;0.90;;
13032;SDS011;6583;42.632;23.298;2023-11-18T11:03:18;1.00;;;0.80;;
13032;SDS011;6583;42.632;23.298;2023-11-18T11:05:48;0.70;;;0.70;;
13032;SDS011;6583;42.632;23.298;2023-11-18T11:08:15;0.70;;;0.70;;
13032;SDS011;6583;42.632;23.298;2023-11-18T11:10:42;0.80;;;0.70;;
13032;SDS011;6583;42.632;23.298;2023-11-18T11:13:09;0.53;;;0.53;;
13032;SDS011;6583;42.632;23.298;2023-11-18T11:15:40;0.90;;;0.60;;
13032;SDS011;6583;42.632;23.298;2023-11-18T11:18:12;0.73;;;0.63;;
13032;SDS011;6583;42.632;23.298;2023-11-18T11:20:51;0.97;;;0.70;;
13032;SDS011;6583;42.632;23.298;2023-11-18T11:23:30;0.70;;;0.70;;
13032;SDS011;6583;42.632;23.298;2023-11-18T11:26:12;1.50;;;1.00;;
13032;SDS011;6583;42.632;23.298;2023-11-18T11:28:46;0.80;;;0.80;;
13032;SDS011;6583;42.632;23.298;2023-11-18T11:31:23;1.20;;;0.77;;
13032;SDS011;6583;42.632;23.298;2023-11-18T11:33:59;2.13;;;0.80;;
13032;SDS011;6583;42.632;23.298;2023-11-18T11:36:34;0.50;;;0.50;;
13032;SDS011;6583;42.632;23.298;2023-11-18T11:39:06;0.73;;;0.73;;
13032;SDS011;6583;42.632;23.298;2023-11-18T11:41:39;1.13;;;1.03;;
13032;SDS011;6583;42.632;23.298;2023-11-18T11:44:10;0.83;;;0.83;;
13032;SDS011;6583;42.632;23.298;2023-11-18T11:46:38;0.80;;;0.80;;
13032;SDS011;6583;42.632;23.298;2023-11-18T11:49:09;1.17;;;0.90;;
13032;SDS011;6583;42.632;23.298;2023-11-18T11:51:46;1.47;;;1.00;;
13032;SDS011;6583;42.632;23.298;2023-11-18T11:54:20;0.80;;;0.80;;
13032;SDS011;6583;42.632;23.298;2023-11-18T11:56:49;1.80;;;0.90;;
13032;SDS011;6583;42.632;23.298;2023-11-18T12:02:21;1.20;;;1.10;;
13032;SDS011;6583;42.632;23.298;2023-11-18T12:04:53;1.00;;;1.00;;
13032;SDS011;6583;42.632;23.298;2023-11-18T12:07:23;1.93;;;1.00;;
13032;SDS011;6583;42.632;23.298;2023-11-18T12:09:55;1.70;;;1.03;;
13032;SDS011;6583;42.632;23.298;2023-11-18T12:12:23;1.20;;;1.10;;
13032;SDS011;6583;42.632;23.298;2023-11-18T12:14:51;1.33;;;0.90;;
13032;SDS011;6583;42.632;23.298;2023-11-18T12:17:21;1.30;;;1.20;;
13032;SDS011;6583;42.632;23.298;2023-11-18T12:19:49;1.30;;;1.20;;
13032;SDS011;6583;42.632;23.298;2023-11-18T12:22:25;1.20;;;0.90;;
13032;SDS011;6583;42.632;23.298;2023-11-18T12:28:07;0.83;;;0.83;;
13032;SDS011;6583;42.632;23.298;2023-11-18T12:30:38;1.20;;;1.10;;
13032;SDS011;6583;42.632;23.298;2023-11-18T12:33:08;1.10;;;1.00;;
13032;SDS011;6583;42.632;23.298;2023-11-18T12:35:39;1.53;;;1.20;;
13032;SDS011;6583;42.632;23.298;2023-11-18T12:38:36;1.23;;;1.03;;
13032;SDS011;6583;42.632;23.298;2023-11-18T12:41:28;1.20;;;1.10;;
13032;SDS011;6583;42.632;23.298;2023-11-18T12:44:14;1.17;;;1.00;;
13032;SDS011;6583;42.632;23.298;2023-11-18T12:46:47;1.07;;;1.00;;
13032;SDS011;6583;42.632;23.298;2023-11-18T12:49:20;1.07;;;1.07;;
13032;SDS011;6583;42.632;23.298;2023-11-18T12:51:49;1.10;;;1.00;;
13032;SDS011;6583;42.632;23.298;2023-11-18T12:54:19;0.90;;;0.90;;
13032;SDS011;6583;42.632;23.298;2023-11-18T12:56:46;1.40;;;1.10;;
13032;SDS011;6583;42.632;23.298;2023-11-18T12:59:15;1.50;;;1.30;;
13032;SDS011;6583;42.632;23.298;2023-11-18T13:01:43;1.60;;;1.30;;
13032;SDS011;6583;42.632;23.298;2023-11-18T13:04:15;1.20;;;1.10;;
13032;SDS011;6583;42.632;23.298;2023-11-18T13:06:42;1.77;;;1.67;;
13032;SDS011;6583;42.632;23.298;2023-11-18T13:09:09;1.47;;;1.33;;
13032;SDS011;6583;42.632;23.298;2023-11-18T13:11:38;1.47;;;1.37;;
13032;SDS011;6583;42.632;23.298;2023-11-18T13:14:07;1.60;;;1.50;;
13032;SDS011;6583;42.632;23.298;2023-11-18T13:16:34;1.60;;;1.50;;
13032;SDS011;6583;42.632;23.298;2023-11-18T13:19:01;1.63;;;1.53;;
13032;SDS011;6583;42.632;23.298;2023-11-18T13:21:30;2.23;;;1.33;;
13032;SDS011;6583;42.632;23.298;2023-11-18T13:24:05;1.83;;;1.73;;
13032;SDS011;6583;42.632;23.298;2023-11-18T13:26:33;1.57;;;1.47;;
13032;SDS011;6583;42.632;23.298;2023-11-18T13:29:01;2.10;;;1.90;;
13032;SDS011;6583;42.632;23.298;2023-11-18T13:31:28;1.90;;;1.80;;
13032;SDS011;6583;42.632;23.298;2023-11-18T13:33:55;2.33;;;1.90;;
13032;SDS011;6583;42.632;23.298;2023-11-18T13:36:23;1.80;;;1.70;;
13032;SDS011;6583;42.632;23.298;2023-11-18T13:38:49;1.70;;;1.27;;
13032;SDS011;6583;42.632;23.298;2023-11-18T13:43:58;1.70;;;1.60;;
13032;SDS011;6583;42.632;23.298;2023-11-18T13:46:27;2.10;;;1.90;;
13032;SDS011;6583;42.632;23.298;2023-11-18T13:48:54;2.60;;;2.00;;
13032;SDS011;6583;42.632;23.298;2023-11-18T13:51:21;3.27;;;2.97;;
13032;SDS011;6583;42.632;23.298;2023-11-18T13:53:48;3.30;;;3.00;;
13032;SDS011;6583;42.632;23.298;2023-11-18T13:56:18;2.13;;;1.80;;
13032;SDS011;6583;42.632;23.298;2023-11-18T14:11:44;2.03;;;1.90;;
13032;SDS011;6583;42.632;23.298;2023-11-18T14:14:11;2.30;;;2.10;;
13032;SDS011;6583;42.632;23.298;2023-11-18T14:16:38;2.43;;;1.90;;
13032;SDS011;6583;42.632;23.298;2023-11-18T14:19:05;2.30;;;1.90;;
13032;SDS011;6583;42.632;23.298;2023-11-18T14:21:33;1.90;;;1.80;;
13032;SDS011;6583;42.632;23.298;2023-11-18T14:23:59;2.23;;;1.83;;
13032;SDS011;6583;42.632;23.298;2023-11-18T14:26:28;2.13;;;1.97;;
13032;SDS011;6583;42.632;23.298;2023-11-18T14:28:57;2.27;;;2.07;;
13032;SDS011;6583;42.632;23.298;2023-11-18T14:31:25;2.20;;;2.00;;
13032;SDS011;6583;42.632;23.298;2023-11-18T14:33:52;2.17;;;2.00;;
13032;SDS011;6583;42.632;23.298;2023-11-18T14:36:19;3.27;;;2.13;;
13032;SDS011;6583;42.632;23.298;2023-11-18T14:38:46;3.67;;;2.30;;
13032;SDS011;6583;42.632;23.298;2023-11-18T14:41:13;2.17;;;1.93;;
13032;SDS011;6583;42.632;23.298;2023-11-18T14:43:40;2.23;;;1.87;;
13032;SDS011;6583;42.632;23.298;2023-11-18T14:46:09;2.30;;;1.93;;
13032;SDS011;6583;42.632;23.298;2023-11-18T14:48:36;2.90;;;2.17;;
13032;SDS011;6583;42.632;23.298;2023-11-18T14:51:03;1.80;;;1.70;;
13032;SDS011;6583;42.632;23.298;2023-11-18T14:53:32;2.00;;;1.80;;
13032;SDS011;6583;42.632;23.298;2023-11-18T14:55:59;2.13;;;1.80;;
13032;SDS011;6583;42.632;23.298;2023-11-18T14:58:29;2.30;;;2.10;;
13032;SDS011;6583;42.632;23.298;2023-11-18T15:00:57;3.03;;;2.40;;
13032;SDS011;6583;42.632;23.298;2023-11-18T15:03:27;2.43;;;2.10;;
13032;SDS011;6583;42.632;23.298;2023-11-18T15:05:54;3.30;;;2.30;;
13032;SDS011;6583;42.632;23.298;2023-11-18T15:08:21;2.70;;;2.50;;
13032;SDS011;6583;42.632;23.298;2023-11-18T15:10:48;2.20;;;1.90;;
13032;SDS011;6583;42.632;23.298;2023-11-18T15:13:16;2.80;;;2.60;;
13032;SDS011;6583;42.632;23.298;2023-11-18T15:15:43;2.10;;;1.80;;
13032;SDS011;6583;42.632;23.298;2023-11-18T15:18:12;2.57;;;2.37;;
13032;SDS011;6583;42.632;23.298;2023-11-18T15:20:43;2.57;;;2.37;;
13032;SDS011;6583;42.632;23.298;2023-11-18T15:23:10;2.53;;;2.30;;
13032;SDS011;6583;42.632;23.298;2023-11-18T15:25:38;2.37;;;2.17;;
13032;SDS011;6583;42.632;23.298;2023-11-18T15:28:06;2.73;;;2.53;;
13032;SDS011;6583;42.632;23.298;2023-11-18T15:30:35;1.57;;;1.47;;
13032;SDS011;6583;42.632;23.298;2023-11-18T15:33:02;2.23;;;1.97;;
13032;SDS011;6583;42.632;23.298;2023-11-18T15:35:29;2.80;;;2.60;;
13032;SDS011;6583;42.632;23.298;2023-11-18T15:37:58;2.00;;;1.80;;
13032;SDS011;6583;42.632;23.298;2023-11-18T15:40:25;2.03;;;1.93;;
13032;SDS011;6583;42.632;23.298;2023-11-18T15:42:52;4.53;;;3.73;;
13032;SDS011;6583;42.632;23.298;2023-11-18T15:45:21;2.93;;;2.60;;
13032;SDS011;6583;42.632;23.298;2023-11-18T15:47:49;3.40;;;2.70;;
13032;SDS011;6583;42.632;23.298;2023-11-18T15:50:17;2.80;;;2.50;;
13032;SDS011;6583;42.632;23.298;2023-11-18T15:52:46;3.13;;;2.83;;
13032;SDS011;6583;42.632;23.298;2023-11-18T15:55:15;2.83;;;2.63;;
13032;SDS011;6583;42.632;23.298;2023-11-18T15:57:43;3.87;;;2.53;;
13032;SDS011;6583;42.632;23.298;2023-11-18T16:00:12;2.50;;;2.30;;
13032;SDS011;6583;42.632;23.298;2023-11-18T16:02:41;2.40;;;2.13;;